createdAt,value
2023-11-25T00:01:02.088Z,0.00
2023-11-25T00:03:29.723Z,0.00
2023-11-25T00:05:57.229Z,0.00
2023-11-25T00:08:26.622Z,1.00
2023-11-25T00:10:54.362Z,1.00
2023-11-25T00:13:22.983Z,0.00
2023-11-25T00:15:50.690Z,2.80
2023-11-25T00:18:19.504Z,1.00
2023-11-25T00:20:48.518Z,1.00
2023-11-25T00:23:16.490Z,8.80
2023-11-25T00:25:44.043Z,0.20
2023-11-25T00:28:12.030Z,1.60
2023-11-25T00:30:40.217Z,0.00
2023-11-25T00:33:08.123Z,0.00
2023-11-25T00:35:35.861Z,2.20
2023-11-25T00:38:03.681Z,2.20
2023-11-25T00:40:31.385Z,2.40
2023-11-25T00:42:59.044Z,0.20
2023-11-25T00:45:28.157Z,0.00
2023-11-25T00:47:58.167Z,1.80
2023-11-25T00:50:26.608Z,0.80
2023-11-25T00:52:55.146Z,3.00
2023-11-25T00:55:22.826Z,0.60
2023-11-25T00:57:50.528Z,0.20
2023-11-25T01:00:18.629Z,3.80
2023-11-25T01:02:46.887Z,7.00
2023-11-25T01:05:14.659Z,4.00
2023-11-25T01:07:42.526Z,5.20
2023-11-25T01:10:11.550Z,0.40
2023-11-25T01:12:39.171Z,1.40
2023-11-25T01:15:08.699Z,1.80
2023-11-25T01:17:36.543Z,0.20
2023-11-25T01:20:05.498Z,0.00
2023-11-25T01:22:33.662Z,3.40
2023-11-25T01:25:01.332Z,0.00
2023-11-25T01:27:28.894Z,1.00
2023-11-25T01:29:56.730Z,0.00
2023-11-25T01:32:24.317Z,0.60
2023-11-25T01:34:52.217Z,1.00
2023-11-25T01:37:20.070Z,4.00
2023-11-25T01:39:48.573Z,0.80
2023-11-25T01:42:16.220Z,3.60
2023-11-25T01:44:44.354Z,2.60
2023-11-25T01:47:14.042Z,2.20
2023-11-25T01:49:43.466Z,1.00
2023-11-25T01:52:11.501Z,2.20
2023-11-25T01:54:39.586Z,3.20
2023-11-25T01:57:08.958Z,4.00
2023-11-25T01:59:36.716Z,0.80
2023-11-25T02:02:06.528Z,1.00
2023-11-25T02:04:37.321Z,1.80
2023-11-25T02:07:06.485Z,0.00
2023-11-25T02:09:35.524Z,4.60
2023-11-25T02:12:03.704Z,1.00
2023-11-25T02:14:31.355Z,1.00
2023-11-25T02:17:01.761Z,0.00
2023-11-25T02:19:30.686Z,1.00
2023-11-25T02:21:59.117Z,0.00
2023-11-25T02:24:28.313Z,1.00
2023-11-25T02:27:00.669Z,1.80
2023-11-25T02:29:29.364Z,0.80
2023-11-25T02:32:00.003Z,0.00
2023-11-25T02:34:28.652Z,1.00
2023-11-25T02:36:56.711Z,3.20
2023-11-25T02:39:24.518Z,0.60
2023-11-25T02:41:53.277Z,3.00
2023-11-25T02:44:22.639Z,1.00
2023-11-25T02:46:51.208Z,0.00
2023-11-25T02:49:19.557Z,1.00
2023-11-25T02:51:57.063Z,1.00
2023-11-25T02:54:26.189Z,4.00
2023-11-25T02:56:53.739Z,2.60
2023-11-25T02:59:21.409Z,0.80
2023-11-25T03:01:55.716Z,0.80
2023-11-25T03:04:28.873Z,2.40
2023-11-25T03:06:57.174Z,1.00
2023-11-25T03:09:27.298Z,3.80
2023-11-25T03:11:54.999Z,1.00
2023-11-25T03:14:23.980Z,1.00
2023-11-25T03:16:56.097Z,1.40
2023-11-25T03:19:24.677Z,4.80
2023-11-25T03:21:54.416Z,0.80
2023-11-25T03:24:25.794Z,0.60
2023-11-25T03:26:54.356Z,6.00
2023-11-25T03:29:21.874Z,3.00
2023-11-25T03:31:49.708Z,3.40
2023-11-25T03:34:17.574Z,3.80
2023-11-25T03:36:45.361Z,0.00
2023-11-25T03:39:15.293Z,0.80
2023-11-25T03:41:44.385Z,0.60
2023-11-25T03:44:12.078Z,6.00
2023-11-25T03:46:43.411Z,4.00
2023-11-25T03:49:11.609Z,4.20
2023-11-25T03:51:39.258Z,4.00
2023-11-25T03:54:07.148Z,4.00
2023-11-25T03:56:34.859Z,2.80
2023-11-25T03:59:03.003Z,2.20
2023-11-25T04:01:30.988Z,1.40
2023-11-25T04:03:59.130Z,3.60
2023-11-25T04:06:27.570Z,3.00
2023-11-25T04:08:55.157Z,5.60
2023-11-25T04:11:22.843Z,2.60
2023-11-25T04:13:50.571Z,6.00
2023-11-25T04:16:19.046Z,1.80
2023-11-25T04:18:49.058Z,2.80
2023-11-25T04:21:17.341Z,1.80
2023-11-25T04:23:44.961Z,2.80
2023-11-25T04:26:13.288Z,1.00
2023-11-25T04:28:41.143Z,1.00
2023-11-25T04:31:08.978Z,1.00
2023-11-25T04:33:36.482Z,3.80
2023-11-25T04:36:04.414Z,3.00
2023-11-25T04:38:32.162Z,2.20
2023-11-25T04:41:00.074Z,4.80
2023-11-25T04:43:27.709Z,6.00
2023-11-25T04:45:55.789Z,4.00
2023-11-25T04:48:23.594Z,6.20
2023-11-25T04:50:51.429Z,3.00
2023-11-25T04:53:19.170Z,5.20
2023-11-25T04:55:46.984Z,6.00
2023-11-25T04:58:15.194Z,4.20
2023-11-25T05:00:43.025Z,4.00
2023-11-25T05:03:10.954Z,4.80
2023-11-25T05:05:39.136Z,3.20
2023-11-25T05:08:08.283Z,4.00
2023-11-25T05:10:35.880Z,7.60
2023-11-25T05:13:03.198Z,2.60
2023-11-25T05:15:30.600Z,8.20
2023-11-25T05:17:57.959Z,3.80
2023-11-25T05:20:25.478Z,5.20
2023-11-25T05:22:52.911Z,8.80
2023-11-25T05:25:20.246Z,4.00
2023-11-25T05:27:47.640Z,3.00
2023-11-25T05:30:16.268Z,1.00
2023-11-25T05:32:45.295Z,5.60
2023-11-25T05:35:14.850Z,2.20
2023-11-25T05:37:45.942Z,4.00
2023-11-25T05:40:16.357Z,3.60
2023-11-25T05:42:50.093Z,5.00
2023-11-25T05:45:19.797Z,6.60
2023-11-25T05:47:48.323Z,7.00
2023-11-25T05:50:27.007Z,6.40
2023-11-25T05:52:56.165Z,4.80
2023-11-25T05:55:23.744Z,5.20
2023-11-25T05:57:53.980Z,4.40
2023-11-25T06:00:23.254Z,6.40
2023-11-25T06:02:51.192Z,7.00
2023-11-25T06:05:19.515Z,4.80
2023-11-25T06:07:47.195Z,5.20
2023-11-25T06:10:15.375Z,6.20
2023-11-25T06:12:43.313Z,0.60
2023-11-25T06:15:11.345Z,7.00
2023-11-25T06:17:39.325Z,1.80
2023-11-25T06:20:07.723Z,4.40
2023-11-25T06:22:35.322Z,4.00
2023-11-25T06:25:06.049Z,5.20
2023-11-25T06:27:33.556Z,8.60
2023-11-25T06:30:01.042Z,5.20
2023-11-25T06:32:30.077Z,4.60
2023-11-25T06:34:58.630Z,9.00
2023-11-25T06:37:26.645Z,4.60
2023-11-25T06:39:54.101Z,4.00
2023-11-25T06:42:23.732Z,3.00
2023-11-25T06:44:52.658Z,6.00
2023-11-25T06:47:20.495Z,4.20
2023-11-25T06:49:49.599Z,3.80
2023-11-25T06:52:19.073Z,8.40
2023-11-25T06:54:46.509Z,9.40
2023-11-25T06:57:14.532Z,5.60
2023-11-25T06:59:47.299Z,6.40
2023-11-25T07:02:15.208Z,5.40
2023-11-25T07:04:42.807Z,4.00
2023-11-25T07:07:10.819Z,0.60
2023-11-25T07:09:38.782Z,6.40
2023-11-25T07:12:06.701Z,4.20
2023-11-25T07:14:34.067Z,4.80
2023-11-25T07:17:01.831Z,5.60
2023-11-25T07:19:30.152Z,6.00
2023-11-25T07:21:58.494Z,7.20
2023-11-25T07:24:28.887Z,4.60
2023-11-25T07:27:03.387Z,4.40
2023-11-25T07:29:33.356Z,4.00
2023-11-25T07:32:01.926Z,7.00
2023-11-25T07:34:31.476Z,6.80
2023-11-25T07:36:59.703Z,6.20
2023-11-25T07:39:30.946Z,6.40
2023-11-25T07:41:59.616Z,3.20
2023-11-25T07:44:33.689Z,10.80
2023-11-25T07:47:03.461Z,5.60
2023-11-25T07:49:31.235Z,4.00
2023-11-25T07:51:59.274Z,6.00
2023-11-25T07:54:26.909Z,9.00
2023-11-25T07:56:54.549Z,7.00
2023-11-25T07:59:22.228Z,8.80
2023-11-25T08:01:50.387Z,4.80
2023-11-25T08:04:18.404Z,7.80
2023-11-25T08:06:46.211Z,5.80
2023-11-25T08:09:13.899Z,6.00
2023-11-25T08:11:41.561Z,6.40
2023-11-25T08:14:09.255Z,5.40
2023-11-25T08:16:36.931Z,4.00
2023-11-25T08:19:05.359Z,12.00
2023-11-25T08:21:33.037Z,3.60
2023-11-25T08:24:01.718Z,13.60
2023-11-25T08:26:31.380Z,5.00
2023-11-25T08:29:00.072Z,6.40
2023-11-25T08:31:27.659Z,9.80
2023-11-25T08:33:57.031Z,10.00
2023-11-25T08:36:24.591Z,3.00
2023-11-25T08:38:57.675Z,2.20
2023-11-25T08:41:25.497Z,12.00
2023-11-25T08:43:53.196Z,6.40
2023-11-25T08:46:23.743Z,5.80
2023-11-25T08:48:52.137Z,4.60
2023-11-25T08:51:20.278Z,7.00
2023-11-25T08:53:51.145Z,8.20
2023-11-25T08:56:19.024Z,12.20
2023-11-25T08:58:47.342Z,5.00
2023-11-25T09:01:15.053Z,7.60
2023-11-25T09:03:44.229Z,6.80
2023-11-25T09:06:12.509Z,10.00
2023-11-25T09:08:40.346Z,6.60
2023-11-25T09:11:08.807Z,15.80
2023-11-25T09:13:36.391Z,8.80
2023-11-25T09:16:05.444Z,5.80
2023-11-25T09:18:33.344Z,15.20
2023-11-25T09:21:01.132Z,11.20
2023-11-25T09:23:28.700Z,12.60
2023-11-25T09:25:56.426Z,6.00
2023-11-25T09:28:23.986Z,10.00
2023-11-25T09:30:51.889Z,9.60
2023-11-25T09:33:19.248Z,9.20
2023-11-25T09:35:46.868Z,9.50
2023-11-25T09:38:14.396Z,10.00
2023-11-25T09:40:42.110Z,9.40
2023-11-25T09:43:10.664Z,9.60
2023-11-25T09:45:39.173Z,8.60
2023-11-25T09:48:06.666Z,17.40
2023-11-25T09:50:36.266Z,16.00
2023-11-25T09:53:12.165Z,18.20
2023-11-25T09:55:39.960Z,16.20
2023-11-25T09:58:08.249Z,9.40
2023-11-25T10:00:39.325Z,16.20
2023-11-25T10:03:11.978Z,5.80
2023-11-25T10:05:39.704Z,8.20
2023-11-25T10:08:08.128Z,7.80
2023-11-25T10:10:35.763Z,8.40
2023-11-25T10:13:04.941Z,11.60
2023-11-25T10:15:33.141Z,21.60
2023-11-25T10:18:00.587Z,18.00
2023-11-25T10:20:28.088Z,10.60
2023-11-25T10:22:58.854Z,13.20
2023-11-25T10:25:29.838Z,10.40
2023-11-25T10:27:58.039Z,10.80
2023-11-25T10:30:26.542Z,7.80
2023-11-25T10:32:56.108Z,12.60
2023-11-25T10:35:27.172Z,7.80
2023-11-25T10:37:54.965Z,10.20
2023-11-25T10:40:23.872Z,14.00
2023-11-25T10:42:51.571Z,11.20
2023-11-25T10:45:22.776Z,9.20
2023-11-25T10:47:51.167Z,6.40
2023-11-25T10:50:18.874Z,9.60
2023-11-25T10:52:51.229Z,12.60
2023-11-25T10:55:21.674Z,13.40
2023-11-25T10:57:49.852Z,9.00
2023-11-25T11:00:19.243Z,11.20
2023-11-25T11:02:56.186Z,7.80
2023-11-25T11:05:45.407Z,18.20
2023-11-25T11:08:17.448Z,23.40
2023-11-25T11:11:23.189Z,21.20
2023-11-25T11:14:08.650Z,14.20
2023-11-25T11:16:39.625Z,23.20
2023-11-25T11:19:09.651Z,21.00
2023-11-25T11:21:39.407Z,13.00
2023-11-25T11:24:12.285Z,11.20
2023-11-25T11:27:24.407Z,15.00
2023-11-25T11:30:04.813Z,12.60
2023-11-25T11:32:36.521Z,13.60
2023-11-25T11:35:05.041Z,13.60
2023-11-25T11:37:39.840Z,15.20
2023-11-25T11:40:08.244Z,14.20
2023-11-25T11:42:36.104Z,21.00
2023-11-25T11:45:24.097Z,16.80
2023-11-25T11:48:00.335Z,17.60
2023-11-25T11:50:30.917Z,15.40
2023-11-25T11:53:01.634Z,15.40
2023-11-25T11:55:42.800Z,13.80
2023-11-25T11:58:11.569Z,12.20
2023-11-25T12:01:04.841Z,9.20
2023-11-25T12:03:39.596Z,7.80
2023-11-25T12:06:07.717Z,10.80
2023-11-25T12:08:36.286Z,6.00
2023-11-25T12:11:06.835Z,9.80
2023-11-25T12:13:40.048Z,9.60
2023-11-25T12:16:10.005Z,6.80
2023-11-25T12:18:39.280Z,11.60
2023-11-25T12:21:07.195Z,12.00
2023-11-25T12:26:10.521Z,13.00
2023-11-25T12:28:44.508Z,8.20
2023-11-25T12:31:16.522Z,7.20
2023-11-25T12:33:44.060Z,7.40
2023-11-25T12:36:11.460Z,8.60
2023-11-25T12:38:39.413Z,6.00
2023-11-25T12:41:13.810Z,12.80
2023-11-25T12:44:04.413Z,11.20
2023-11-25T12:46:32.539Z,10.00
2023-11-25T12:49:08.673Z,17.60
2023-11-25T12:51:44.926Z,10.80
2023-11-25T12:54:12.896Z,7.00
2023-11-25T12:56:41.329Z,11.60
2023-11-25T12:59:09.374Z,11.20
2023-11-25T13:01:37.841Z,6.80
2023-11-25T13:04:06.395Z,10.00
2023-11-25T13:07:01.177Z,13.20
2023-11-25T13:09:34.929Z,4.40
2023-11-25T13:12:02.738Z,13.20
2023-11-25T13:14:31.365Z,8.80
2023-11-25T13:16:59.226Z,11.60
2023-11-25T13:19:27.533Z,8.80
2023-11-25T13:21:55.104Z,13.40
2023-11-25T13:24:23.803Z,16.40
2023-11-25T13:26:51.451Z,9.80
2023-11-25T13:29:19.051Z,9.00
2023-11-25T13:31:46.592Z,21.40
2023-11-25T13:34:13.906Z,19.80
2023-11-25T13:36:45.693Z,18.60
2023-11-25T13:39:20.527Z,15.60
2023-11-25T13:41:48.535Z,15.80
2023-11-25T13:44:16.309Z,20.20
2023-11-25T13:46:44.024Z,28.00
2023-11-25T13:49:11.569Z,19.60
2023-11-25T13:51:39.231Z,29.20
2023-11-25T13:54:07.057Z,19.00
2023-11-25T13:56:34.645Z,14.00
2023-11-25T13:59:02.283Z,19.40
2023-11-25T14:01:30.119Z,17.00
2023-11-25T14:03:58.043Z,25.00
2023-11-25T14:06:25.961Z,20.60
2023-11-25T14:08:53.314Z,10.00
2023-11-25T14:11:24.707Z,6.00
2023-11-25T14:13:57.160Z,13.20
2023-11-25T14:16:25.392Z,13.40
2023-11-25T14:18:53.695Z,11.60
2023-11-25T14:21:21.271Z,13.20
2023-11-25T14:23:48.891Z,10.80
2023-11-25T14:26:16.490Z,9.60
2023-11-25T14:28:43.982Z,9.60
2023-11-25T14:31:12.120Z,12.60
2023-11-25T14:33:39.860Z,19.00
2023-11-25T14:36:09.367Z,16.00
2023-11-25T14:38:37.051Z,7.00
2023-11-25T14:41:06.127Z,4.60
2023-11-25T14:43:33.705Z,7.40
2023-11-25T14:46:02.009Z,8.20
2023-11-25T14:48:29.285Z,12.00
2023-11-25T14:50:56.666Z,7.40
2023-11-25T14:53:24.217Z,11.00
2023-11-25T14:55:52.120Z,6.80
2023-11-25T14:58:19.807Z,12.60
2023-11-25T15:00:47.320Z,5.60
2023-11-25T15:03:14.890Z,5.60
2023-11-25T15:05:42.639Z,5.60
2023-11-25T15:08:10.284Z,9.75
2023-11-25T15:10:38.138Z,7.00
2023-11-25T15:13:05.680Z,12.00
2023-11-25T15:15:33.415Z,9.20
2023-11-25T15:18:01.272Z,7.50
2023-11-25T15:20:29.013Z,10.50
2023-11-25T15:22:58.540Z,11.60
2023-11-25T15:25:27.723Z,10.25
2023-11-25T15:27:56.122Z,10.00
2023-11-25T15:30:26.497Z,3.50
2023-11-25T15:32:54.012Z,11.50
2023-11-25T15:35:21.687Z,6.50
2023-11-25T15:37:49.110Z,5.75
2023-11-25T15:40:18.825Z,7.25
2023-11-25T15:42:48.755Z,6.00
2023-11-25T15:45:16.746Z,6.50
2023-11-25T15:47:44.249Z,9.75
2023-11-25T15:50:12.199Z,7.00
2023-11-25T15:52:40.995Z,10.00
2023-11-25T15:55:12.963Z,6.50
2023-11-25T15:57:40.490Z,9.00
2023-11-25T16:00:15.360Z,8.00
2023-11-25T16:02:44.583Z,7.25
2023-11-25T16:05:13.991Z,11.50
2023-11-25T16:07:41.633Z,6.75
2023-11-25T16:10:11.545Z,6.75
2023-11-25T16:12:39.662Z,4.00
2023-11-25T16:15:10.469Z,9.00
2023-11-25T16:17:40.031Z,8.50
2023-11-25T16:20:08.455Z,6.00
2023-11-25T16:22:36.259Z,4.00
2023-11-25T16:25:03.766Z,15.00
2023-11-25T16:27:31.085Z,19.50
2023-11-25T16:29:58.466Z,15.25
2023-11-25T16:32:26.949Z,15.50
2023-11-25T16:34:54.477Z,12.00
2023-11-25T16:37:23.682Z,9.75
2023-11-25T16:39:50.950Z,9.25
2023-11-25T16:42:18.228Z,11.50
2023-11-25T16:44:45.954Z,9.25
2023-11-25T16:47:13.191Z,15.00
2023-11-25T16:49:42.114Z,12.75
2023-11-25T16:52:10.530Z,10.00
2023-11-25T16:54:40.227Z,10.00
2023-11-25T16:57:07.946Z,10.00
2023-11-25T16:59:35.328Z,6.00
2023-11-25T17:02:02.968Z,13.75
2023-11-25T17:04:30.540Z,10.50
2023-11-25T17:06:57.862Z,9.50
2023-11-25T17:09:25.107Z,8.75
2023-11-25T17:11:52.368Z,7.75
2023-11-25T17:14:19.751Z,3.00
2023-11-25T17:16:47.168Z,6.50
2023-11-25T17:19:14.982Z,9.50
2023-11-25T17:21:42.639Z,1.50
2023-11-25T17:24:10.682Z,8.00
2023-11-25T17:26:37.940Z,4.50
2023-11-25T17:29:05.265Z,10.75
2023-11-25T17:31:32.635Z,15.50
2023-11-25T17:34:00.007Z,6.25
2023-11-25T17:36:27.308Z,9.75
2023-11-25T17:38:54.990Z,10.50
2023-11-25T17:41:22.345Z,9.50
2023-11-25T17:43:49.729Z,11.00
2023-11-25T17:46:17.264Z,5.25
2023-11-25T17:48:44.718Z,9.00
2023-11-25T17:51:12.706Z,11.00
2023-11-25T17:53:40.042Z,9.25
2023-11-25T17:56:09.232Z,9.25
2023-11-25T17:58:36.875Z,6.25
2023-11-25T18:01:04.533Z,9.75
2023-11-25T18:03:33.379Z,7.75
2023-11-25T18:06:00.642Z,8.00
2023-11-25T18:08:30.135Z,11.75
2023-11-25T18:10:57.594Z,12.50
2023-11-25T18:13:25.092Z,10.00
2023-11-25T18:15:52.689Z,6.25
2023-11-25T18:18:21.571Z,3.25
2023-11-25T18:20:49.006Z,7.75
2023-11-25T18:23:16.602Z,8.50
2023-11-25T18:25:44.077Z,5.00
2023-11-25T18:28:11.622Z,9.50
2023-11-25T18:30:40.418Z,11.50
2023-11-25T18:33:08.970Z,6.75
2023-11-25T18:35:38.369Z,5.00
2023-11-25T18:38:07.268Z,4.00
2023-11-25T18:40:34.841Z,9.50
2023-11-25T18:43:02.282Z,9.50
2023-11-25T18:45:29.616Z,4.75
2023-11-25T18:47:57.088Z,11.50
2023-11-25T18:50:29.102Z,8.25
2023-11-25T18:52:56.913Z,5.50
2023-11-25T18:55:24.882Z,10.25
2023-11-25T18:57:52.296Z,8.50
2023-11-25T19:00:20.064Z,8.75
2023-11-25T19:02:47.782Z,6.75
2023-11-25T19:05:16.884Z,11.00
2023-11-25T19:07:47.383Z,10.75
2023-11-25T19:10:18.076Z,5.75
2023-11-25T19:12:45.524Z,3.25
2023-11-25T19:15:13.347Z,6.25
2023-11-25T19:17:41.396Z,6.50
2023-11-25T19:20:12.442Z,5.00
2023-11-25T19:22:42.007Z,3.75
2023-11-25T19:25:09.796Z,5.00
2023-11-25T19:27:38.449Z,4.25
2023-11-25T19:30:08.281Z,6.75
2023-11-25T19:32:35.731Z,8.00
2023-11-25T19:35:03.071Z,5.00
2023-11-25T19:37:32.249Z,3.75
2023-11-25T19:39:59.589Z,4.00
2023-11-25T19:42:26.854Z,5.00
2023-11-25T19:44:55.382Z,5.25
2023-11-25T19:47:23.575Z,8.00
2023-11-25T19:49:50.849Z,3.75
2023-11-25T19:52:18.215Z,6.00
2023-11-25T19:54:45.797Z,2.50
2023-11-25T19:57:15.572Z,3.25
2023-11-25T19:59:42.889Z,3.50
2023-11-25T20:02:10.457Z,3.00
2023-11-25T20:04:39.796Z,7.00
2023-11-25T20:07:07.249Z,6.00
2023-11-25T20:09:35.557Z,5.75
2023-11-25T20:12:02.911Z,7.25
2023-11-25T20:14:30.258Z,4.00
2023-11-25T20:16:58.460Z,3.00
2023-11-25T20:19:27.979Z,9.25
2023-11-25T20:21:56.765Z,8.00
2023-11-25T20:24:25.086Z,5.00
2023-11-25T20:26:53.707Z,3.25
2023-11-25T20:29:21.064Z,4.00
2023-11-25T20:31:48.673Z,3.00
2023-11-25T20:34:16.043Z,4.00
2023-11-25T20:36:43.428Z,6.00
2023-11-25T20:39:11.244Z,7.25
2023-11-25T20:41:38.990Z,5.50
2023-11-25T20:44:06.498Z,8.25
2023-11-25T20:46:34.142Z,6.75
2023-11-25T20:49:01.845Z,3.75
2023-11-25T20:51:29.485Z,7.00
2023-11-25T20:53:57.131Z,7.00
2023-11-25T20:56:24.803Z,6.75
2023-11-25T20:58:53.067Z,7.50
2023-11-25T21:01:21.224Z,2.50
2023-11-25T21:03:49.312Z,4.00
2023-11-25T21:06:17.168Z,9.00
2023-11-25T21:08:45.320Z,10.50
2023-11-25T21:11:13.461Z,5.00
2023-11-25T21:13:41.905Z,2.50
2023-11-25T21:16:09.602Z,6.00
2023-11-25T21:18:39.612Z,4.50
2023-11-25T21:21:08.466Z,8.50
2023-11-25T21:23:36.017Z,5.00
2023-11-25T21:26:03.907Z,7.00
2023-11-25T21:28:31.769Z,7.75
2023-11-25T21:30:59.450Z,8.00
2023-11-25T21:33:27.090Z,7.00
2023-11-25T21:35:55.293Z,7.50
2023-11-25T21:38:23.245Z,11.50
2023-11-25T21:40:50.956Z,7.50
2023-11-25T21:43:18.521Z,3.25
2023-11-25T21:45:46.618Z,3.25
2023-11-25T21:48:14.211Z,12.50
2023-11-25T21:50:42.174Z,6.25
2023-11-25T21:53:09.788Z,14.00
2023-11-25T21:55:37.444Z,9.25
2023-11-25T21:58:05.602Z,12.50
2023-11-25T22:00:33.372Z,14.50
2023-11-25T22:03:01.101Z,6.25
2023-11-25T22:05:28.792Z,8.50
2023-11-25T22:07:56.956Z,13.50
2023-11-25T22:10:28.077Z,8.50
2023-11-25T22:12:58.323Z,4.00
2023-11-25T22:15:26.213Z,9.50
2023-11-25T22:17:54.014Z,9.00
2023-11-25T22:20:22.129Z,5.50
2023-11-25T22:22:50.049Z,9.50
2023-11-25T22:25:27.480Z,9.75
2023-11-25T22:27:56.284Z,11.00
2023-11-25T22:30:25.337Z,6.75
2023-11-25T22:32:53.074Z,3.00
2023-11-25T22:35:21.252Z,5.00
2023-11-25T22:37:49.932Z,8.50
2023-11-25T22:40:17.850Z,9.25
2023-11-25T22:42:45.485Z,5.00
2023-11-25T22:45:13.345Z,6.25
2023-11-25T22:47:40.871Z,11.00
2023-11-25T22:50:10.045Z,10.75
2023-11-25T22:52:37.962Z,10.00
2023-11-25T22:55:05.698Z,7.00
2023-11-25T22:57:33.219Z,3.25
2023-11-25T23:00:02.720Z,3.50
2023-11-25T23:02:30.754Z,8.50
2023-11-25T23:04:58.529Z,12.25
2023-11-25T23:07:26.722Z,10.50
2023-11-25T23:09:54.500Z,8.25
2023-11-25T23:12:22.160Z,5.00
2023-11-25T23:14:50.565Z,12.25
2023-11-25T23:17:18.441Z,12.75
2023-11-25T23:19:46.116Z,10.00
2023-11-25T23:22:13.830Z,10.00
2023-11-25T23:24:41.546Z,7.00
2023-11-25T23:27:09.941Z,10.50
2023-11-25T23:29:37.978Z,7.75
2023-11-25T23:32:05.977Z,7.75
2023-11-25T23:34:33.743Z,7.75
2023-11-25T23:37:01.317Z,5.50
2023-11-25T23:39:29.030Z,12.75
2023-11-25T23:41:56.620Z,10.00
2023-11-25T23:44:24.348Z,10.00
2023-11-25T23:46:52.404Z,7.00
2023-11-25T23:49:19.970Z,12.25
2023-11-25T23:51:47.670Z,7.50
2023-11-25T23:54:15.220Z,3.50
2023-11-25T23:56:42.919Z,12.00
2023-11-25T23:59:11.756Z,3.00
